sensor_id;sensor_type;location;lat;lon;timestamp;pressure;altitude;pressure_sealevel;temperature;humidity
7990;BME280;4040;42.848;23.034;2023-04-26T00:01:47;93893.34;;;8.43;100.00
7990;BME280;4040;42.848;23.034;2023-04-26T00:07:36;93836.63;;;7.95;100.00
7990;BME280;4040;42.848;23.034;2023-04-26T00:13:26;93960.06;;;8.64;100.00
7990;BME280;4040;42.848;23.034;2023-04-26T00:19:15;93830.75;;;7.54;100.00
7990;BME280;4040;42.848;23.034;2023-04-26T00:25:05;93826.50;;;7.30;100.00
7990;BME280;4040;42.848;23.034;2023-04-26T00:30:54;93798.50;;;7.08;100.00
7990;BME280;4040;42.848;23.034;2023-04-26T00:36:44;93678.47;;;6.20;100.00
7990;BME280;4040;42.848;23.034;2023-04-26T00:42:33;93814.63;;;7.01;100.00
7990;BME280;4040;42.848;23.034;2023-04-26T00:48:23;93938.53;;;7.65;100.00
7990;BME280;4040;42.848;23.034;2023-04-26T00:54:12;93666.31;;;5.82;100.00
7990;BME280;4040;42.848;23.034;2023-04-26T01:00:02;93768.75;;;6.39;100.00
7990;BME280;4040;42.848;23.034;2023-04-26T01:10:14;93944.50;;;7.16;100.00
7990;BME280;4040;42.848;23.034;2023-04-26T01:16:03;93944.13;;;7.14;100.00
7990;BME280;4040;42.848;23.034;2023-04-26T01:21:52;93932.34;;;7.08;100.00
7990;BME280;4040;42.848;23.034;2023-04-26T01:27:42;93928.06;;;7.44;100.00
7990;BME280;4040;42.848;23.034;2023-04-26T01:33:31;93940.72;;;7.73;100.00
7990;BME280;4040;42.848;23.034;2023-04-26T01:39:21;93871.28;;;7.00;100.00
7990;BME280;4040;42.848;23.034;2023-04-26T01:45:11;93803.09;;;6.44;100.00
7990;BME280;4040;42.848;23.034;2023-04-26T01:51:00;93853.72;;;6.95;100.00
7990;BME280;4040;42.848;23.034;2023-04-26T01:56:49;93843.38;;;6.97;100.00
7990;BME280;4040;42.848;23.034;2023-04-26T02:02:40;93807.16;;;6.89;100.00
7990;BME280;4040;42.848;23.034;2023-04-26T02:05:09;93851.06;;;7.25;100.00
7990;BME280;4040;42.848;23.034;2023-04-26T02:10:58;93799.59;;;6.84;100.00
7990;BME280;4040;42.848;23.034;2023-04-26T02:16:47;93896.25;;;7.76;100.00
7990;BME280;4040;42.848;23.034;2023-04-26T02:22:37;93726.19;;;6.55;100.00
7990;BME280;4040;42.848;23.034;2023-04-26T02:28:26;93803.75;;;7.15;100.00
7990;BME280;4040;42.848;23.034;2023-04-26T02:34:15;93915.81;;;7.46;100.00
7990;BME280;4040;42.848;23.034;2023-04-26T02:40:07;93877.53;;;6.86;100.00
7990;BME280;4040;42.848;23.034;2023-04-26T02:45:56;93921.47;;;7.22;100.00
7990;BME280;4040;42.848;23.034;2023-04-26T02:51:47;93880.28;;;7.13;100.00
7990;BME280;4040;42.848;23.034;2023-04-26T02:57:38;93900.44;;;7.50;100.00
7990;BME280;4040;42.848;23.034;2023-04-26T03:03:26;93781.59;;;6.51;100.00
7990;BME280;4040;42.848;23.034;2023-04-26T03:13:40;93725.53;;;6.14;100.00
7990;BME280;4040;42.848;23.034;2023-04-26T03:19:28;93770.44;;;6.26;100.00
7990;BME280;4040;42.848;23.034;2023-04-26T03:25:17;93775.00;;;6.29;100.00
7990;BME280;4040;42.848;23.034;2023-04-26T03:31:08;93681.09;;;5.53;100.00
7990;BME280;4040;42.848;23.034;2023-04-26T03:36:58;93920.25;;;6.93;100.00
7990;BME280;4040;42.848;23.034;2023-04-26T03:42:47;93811.91;;;6.04;100.00
7990;BME280;4040;42.848;23.034;2023-04-26T03:48:37;93798.75;;;5.76;100.00
7990;BME280;4040;42.848;23.034;2023-04-26T03:54:26;93799.56;;;5.73;100.00
7990;BME280;4040;42.848;23.034;2023-04-26T04:00:14;93856.72;;;6.30;100.00
7990;BME280;4040;42.848;23.034;2023-04-26T04:06:05;93952.88;;;7.18;100.00
7990;BME280;4040;42.848;23.034;2023-04-26T04:16:16;93961.31;;;7.17;100.00
7990;BME280;4040;42.848;23.034;2023-04-26T04:22:07;93954.59;;;7.35;100.00
7990;BME280;4040;42.848;23.034;2023-04-26T04:27:55;93950.13;;;7.55;100.00
7990;BME280;4040;42.848;23.034;2023-04-26T04:33:44;93826.06;;;7.05;100.00
7990;BME280;4040;42.848;23.034;2023-04-26T04:39:34;93791.50;;;7.14;100.00
7990;BME280;4040;42.848;23.034;2023-04-26T04:45:23;93841.44;;;7.80;100.00
7990;BME280;4040;42.848;23.034;2023-04-26T04:51:13;93778.81;;;7.94;100.00
7990;BME280;4040;42.848;23.034;2023-04-26T04:57:04;93951.34;;;9.22;100.00
7990;BME280;4040;42.848;23.034;2023-04-26T05:02:56;93827.00;;;7.97;100.00
7990;BME280;4040;42.848;23.034;2023-04-26T05:08:45;93982.06;;;9.21;100.00
7990;BME280;4040;42.848;23.034;2023-04-26T05:18:56;93891.56;;;8.56;100.00
7990;BME280;4040;42.848;23.034;2023-04-26T05:24:45;93855.69;;;8.69;100.00
7990;BME280;4040;42.848;23.034;2023-04-26T05:30:34;93862.28;;;9.23;100.00
7990;BME280;4040;42.848;23.034;2023-04-26T05:36:24;93724.50;;;8.71;100.00
7990;BME280;4040;42.848;23.034;2023-04-26T05:42:14;93888.34;;;9.62;100.00
7990;BME280;4040;42.848;23.034;2023-04-26T05:48:04;93989.56;;;10.42;100.00
7990;BME280;4040;42.848;23.034;2023-04-26T05:53:54;93845.13;;;9.53;100.00
7990;BME280;4040;42.848;23.034;2023-04-26T05:59:54;94010.94;;;10.81;100.00
7990;BME280;4040;42.848;23.034;2023-04-26T06:05:43;94007.41;;;11.00;100.00
7990;BME280;4040;42.848;23.034;2023-04-26T06:11:33;94016.31;;;11.13;100.00
7990;BME280;4040;42.848;23.034;2023-04-26T06:21:44;93920.56;;;10.64;100.00
7990;BME280;4040;42.848;23.034;2023-04-26T06:27:36;94018.47;;;11.91;100.00
7990;BME280;4040;42.848;23.034;2023-04-26T06:33:26;93897.16;;;11.34;100.00
7990;BME280;4040;42.848;23.034;2023-04-26T06:39:16;93904.38;;;11.66;100.00
7990;BME280;4040;42.848;23.034;2023-04-26T06:45:08;94016.41;;;12.61;100.00
7990;BME280;4040;42.848;23.034;2023-04-26T06:50:58;93980.97;;;12.59;100.00
7990;BME280;4040;42.848;23.034;2023-04-26T06:56:47;94002.00;;;13.14;100.00
7990;BME280;4040;42.848;23.034;2023-04-26T07:02:37;94010.22;;;13.23;100.00
7990;BME280;4040;42.848;23.034;2023-04-26T07:08:26;93940.63;;;12.77;100.00
7990;BME280;4040;42.848;23.034;2023-04-26T07:14:14;94005.50;;;13.02;100.00
7990;BME280;4040;42.848;23.034;2023-04-26T07:24:26;94035.56;;;13.38;100.00
7990;BME280;4040;42.848;23.034;2023-04-26T07:30:14;94025.41;;;14.40;100.00
7990;BME280;4040;42.848;23.034;2023-04-26T07:36:04;94030.38;;;14.72;100.00
7990;BME280;4040;42.848;23.034;2023-04-26T07:41:55;94033.28;;;14.87;100.00
7990;BME280;4040;42.848;23.034;2023-04-26T07:47:44;93940.28;;;13.77;100.00
7990;BME280;4040;42.848;23.034;2023-04-26T07:53:32;94023.81;;;15.93;81.21
7990;BME280;4040;42.848;23.034;2023-04-26T07:59:23;93897.16;;;15.72;72.44
7990;BME280;4040;42.848;23.034;2023-04-26T08:05:13;94027.91;;;16.75;65.41
7990;BME280;4040;42.848;23.034;2023-04-26T08:11:06;93926.94;;;16.08;66.13
7990;BME280;4040;42.848;23.034;2023-04-26T08:16:57;93920.53;;;15.43;67.17
7990;BME280;4040;42.848;23.034;2023-04-26T08:27:07;94035.16;;;20.09;51.22
7990;BME280;4040;42.848;23.034;2023-04-26T08:32:57;93923.16;;;16.56;57.87
7990;BME280;4040;42.848;23.034;2023-04-26T08:58:10;94042.22;;;15.05;64.72
7990;BME280;4040;42.848;23.034;2023-04-26T09:03:59;94008.25;;;14.22;60.23
7990;BME280;4040;42.848;23.034;2023-04-26T09:09:49;94053.06;;;14.66;62.05
7990;BME280;4040;42.848;23.034;2023-04-26T09:15:39;93882.13;;;14.03;57.19
7990;BME280;4040;42.848;23.034;2023-04-26T09:21:29;94044.75;;;18.67;53.38
7990;BME280;4040;42.848;23.034;2023-04-26T09:27:19;94054.50;;;18.30;47.32
7990;BME280;4040;42.848;23.034;2023-04-26T09:33:09;94048.22;;;19.45;47.18
7990;BME280;4040;42.848;23.034;2023-04-26T09:38:58;93913.81;;;17.04;50.06
7990;BME280;4040;42.848;23.034;2023-04-26T09:44:47;93953.88;;;16.80;51.80
7990;BME280;4040;42.848;23.034;2023-04-26T09:50:39;94039.38;;;17.44;50.03
7990;BME280;4040;42.848;23.034;2023-04-26T10:00:53;93764.78;;;16.23;47.39
7990;BME280;4040;42.848;23.034;2023-04-26T10:06:44;94043.34;;;17.43;49.01
7990;BME280;4040;42.848;23.034;2023-04-26T10:12:33;94047.34;;;17.24;51.05
7990;BME280;4040;42.848;23.034;2023-04-26T10:18:22;93853.59;;;16.97;46.96
7990;BME280;4040;42.848;23.034;2023-04-26T10:24:14;93972.59;;;19.17;44.17
7990;BME280;4040;42.848;23.034;2023-04-26T10:30:09;93971.56;;;19.89;44.56
7990;BME280;4040;42.848;23.034;2023-04-26T10:36:06;93921.59;;;19.43;40.84
7990;BME280;4040;42.848;23.034;2023-04-26T10:42:18;93918.50;;;18.81;41.80
7990;BME280;4040;42.848;23.034;2023-04-26T10:48:13;94028.91;;;18.13;43.81
7990;BME280;4040;42.848;23.034;2023-04-26T10:54:03;93901.56;;;16.85;45.35
7990;BME280;4040;42.848;23.034;2023-04-26T11:04:15;94046.00;;;16.10;47.44
7990;BME280;4040;42.848;23.034;2023-04-26T11:10:07;94045.69;;;16.08;48.54
7990;BME280;4040;42.848;23.034;2023-04-26T11:15:59;93854.03;;;14.76;48.55
7990;BME280;4040;42.848;23.034;2023-04-26T11:21:52;94041.84;;;16.68;48.69
7990;BME280;4040;42.848;23.034;2023-04-26T11:27:42;94001.13;;;16.41;47.11
7990;BME280;4040;42.848;23.034;2023-04-26T11:33:31;93901.09;;;15.44;47.29
7990;BME280;4040;42.848;23.034;2023-04-26T11:39:23;93932.88;;;16.30;49.48
7990;BME280;4040;42.848;23.034;2023-04-26T11:45:14;94037.78;;;17.05;46.29
7990;BME280;4040;42.848;23.034;2023-04-26T11:51:05;94038.56;;;17.29;47.83
7990;BME280;4040;42.848;23.034;2023-04-26T11:56:56;94041.66;;;17.13;47.39
7990;BME280;4040;42.848;23.034;2023-04-26T12:07:07;94034.34;;;16.18;51.76
7990;BME280;4040;42.848;23.034;2023-04-26T12:12:58;94039.78;;;16.27;51.22
7990;BME280;4040;42.848;23.034;2023-04-26T12:18:49;93924.41;;;14.97;49.51
7990;BME280;4040;42.848;23.034;2023-04-26T12:24:38;93914.16;;;14.44;51.73
7990;BME280;4040;42.848;23.034;2023-04-26T12:30:31;93998.94;;;14.93;54.90
7990;BME280;4040;42.848;23.034;2023-04-26T12:36:20;93948.16;;;14.75;52.78
7990;BME280;4040;42.848;23.034;2023-04-26T12:42:09;93937.94;;;14.97;55.03
7990;BME280;4040;42.848;23.034;2023-04-26T12:48:00;93753.28;;;13.75;52.55
7990;BME280;4040;42.848;23.034;2023-04-26T12:53:49;94041.59;;;16.48;51.61
7990;BME280;4040;42.848;23.034;2023-04-26T12:59:38;93868.34;;;14.76;54.07
7990;BME280;4040;42.848;23.034;2023-04-26T13:09:50;93927.88;;;15.16;52.36
7990;BME280;4040;42.848;23.034;2023-04-26T13:15:39;94046.16;;;15.70;52.51
7990;BME280;4040;42.848;23.034;2023-04-26T13:21:28;94069.22;;;15.09;54.17
7990;BME280;4040;42.848;23.034;2023-04-26T13:27:19;94063.00;;;14.69;55.12
7990;BME280;4040;42.848;23.034;2023-04-26T13:33:08;94080.53;;;14.77;55.47
7990;BME280;4040;42.848;23.034;2023-04-26T13:38:57;93981.81;;;14.26;55.57
7990;BME280;4040;42.848;23.034;2023-04-26T13:44:49;94060.75;;;14.67;55.98
7990;BME280;4040;42.848;23.034;2023-04-26T13:50:37;94092.03;;;14.38;56.19
7990;BME280;4040;42.848;23.034;2023-04-26T13:56:27;93842.63;;;12.76;55.98
7990;BME280;4040;42.848;23.034;2023-04-26T14:02:17;93975.84;;;12.86;60.84
7990;BME280;4040;42.848;23.034;2023-04-26T14:12:28;94122.41;;;13.65;63.34
7990;BME280;4040;42.848;23.034;2023-04-26T14:18:18;94004.53;;;12.96;63.94
7990;BME280;4040;42.848;23.034;2023-04-26T14:24:07;93980.84;;;12.75;66.96
7990;BME280;4040;42.848;23.034;2023-04-26T14:29:56;94113.59;;;13.27;68.03
7990;BME280;4040;42.848;23.034;2023-04-26T14:35:46;94113.38;;;13.21;68.03
7990;BME280;4040;42.848;23.034;2023-04-26T14:41:35;94161.38;;;13.55;70.30
7990;BME280;4040;42.848;23.034;2023-04-26T14:47:24;94165.94;;;13.33;71.03
7990;BME280;4040;42.848;23.034;2023-04-26T14:53:14;94173.75;;;12.77;75.08
7990;BME280;4040;42.848;23.034;2023-04-26T14:59:03;94034.91;;;11.68;80.20
7990;BME280;4040;42.848;23.034;2023-04-26T15:04:52;93960.09;;;10.83;87.18
7990;BME280;4040;42.848;23.034;2023-04-26T15:15:05;94090.69;;;11.27;93.23
7990;BME280;4040;42.848;23.034;2023-04-26T15:20:55;94079.22;;;11.07;93.14
7990;BME280;4040;42.848;23.034;2023-04-26T15:26:44;94089.50;;;10.96;96.51
7990;BME280;4040;42.848;23.034;2023-04-26T15:32:34;94247.16;;;11.71;100.00
7990;BME280;4040;42.848;23.034;2023-04-26T15:38:23;94050.75;;;10.22;100.00
7990;BME280;4040;42.848;23.034;2023-04-26T15:44:12;94229.91;;;11.33;100.00
7990;BME280;4040;42.848;23.034;2023-04-26T15:50:03;94096.69;;;10.31;100.00
7990;BME280;4040;42.848;23.034;2023-04-26T15:55:52;94184.56;;;10.57;100.00
7990;BME280;4040;42.848;23.034;2023-04-26T16:01:41;94157.28;;;10.39;100.00
7990;BME280;4040;42.848;23.034;2023-04-26T16:07:32;94228.22;;;10.68;100.00
7990;BME280;4040;42.848;23.034;2023-04-26T16:17:42;94094.63;;;9.58;100.00
7990;BME280;4040;42.848;23.034;2023-04-26T16:23:32;94263.28;;;10.84;100.00
7990;BME280;4040;42.848;23.034;2023-04-26T16:29:22;94276.97;;;10.93;100.00
7990;BME280;4040;42.848;23.034;2023-04-26T16:35:11;94122.16;;;9.85;100.00
7990;BME280;4040;42.848;23.034;2023-04-26T16:41:11;94298.88;;;10.95;100.00
7990;BME280;4040;42.848;23.034;2023-04-26T16:47:00;94302.59;;;11.01;100.00
7990;BME280;4040;42.848;23.034;2023-04-26T16:52:50;94062.06;;;9.10;100.00
7990;BME280;4040;42.848;23.034;2023-04-26T16:58:40;94318.22;;;10.90;100.00
7990;BME280;4040;42.848;23.034;2023-04-26T17:04:29;94252.72;;;10.35;100.00
7990;BME280;4040;42.848;23.034;2023-04-26T17:10:18;94198.03;;;9.95;100.00
7990;BME280;4040;42.848;23.034;2023-04-26T17:20:32;94290.81;;;10.53;100.00
7990;BME280;4040;42.848;23.034;2023-04-26T17:26:20;94180.91;;;9.67;100.00
7990;BME280;4040;42.848;23.034;2023-04-26T17:32:09;94363.13;;;10.74;100.00
7990;BME280;4040;42.848;23.034;2023-04-26T17:38:00;94270.13;;;10.07;100.00
7990;BME280;4040;42.848;23.034;2023-04-26T17:43:49;94311.66;;;10.29;100.00
7990;BME280;4040;42.848;23.034;2023-04-26T17:49:38;94169.91;;;9.35;100.00
7990;BME280;4040;42.848;23.034;2023-04-26T17:55:28;94250.56;;;9.81;100.00
7990;BME280;4040;42.848;23.034;2023-04-26T18:01:17;94309.19;;;10.15;100.00
7990;BME280;4040;42.848;23.034;2023-04-26T18:07:07;94271.59;;;9.63;100.00
7990;BME280;4040;42.848;23.034;2023-04-26T18:12:57;94381.03;;;10.41;99.78
7990;BME280;4040;42.848;23.034;2023-04-26T18:23:07;94307.38;;;9.83;100.00
7990;BME280;4040;42.848;23.034;2023-04-26T18:28:58;94366.16;;;10.10;100.00
7990;BME280;4040;42.848;23.034;2023-04-26T18:34:47;94436.75;;;10.44;100.00
7990;BME280;4040;42.848;23.034;2023-04-26T18:40:36;94326.06;;;9.67;100.00
7990;BME280;4040;42.848;23.034;2023-04-26T18:46:26;94453.41;;;10.36;100.00
7990;BME280;4040;42.848;23.034;2023-04-26T18:52:15;94437.16;;;10.16;100.00
7990;BME280;4040;42.848;23.034;2023-04-26T18:58:04;94457.41;;;10.24;100.00
7990;BME280;4040;42.848;23.034;2023-04-26T19:03:55;94468.19;;;10.24;100.00
7990;BME280;4040;42.848;23.034;2023-04-26T19:09:43;94466.22;;;10.28;100.00
7990;BME280;4040;42.848;23.034;2023-04-26T19:15:34;94446.19;;;10.07;100.00
7990;BME280;4040;42.848;23.034;2023-04-26T19:25:46;94245.44;;;8.54;100.00
7990;BME280;4040;42.848;23.034;2023-04-26T19:31:35;94482.28;;;10.05;100.00
7990;BME280;4040;42.848;23.034;2023-04-26T19:37:24;94473.22;;;9.93;100.00
7990;BME280;4040;42.848;23.034;2023-04-26T19:43:14;94461.91;;;9.75;100.00
7990;BME280;4040;42.848;23.034;2023-04-26T19:49:03;94486.41;;;9.84;100.00
7990;BME280;4040;42.848;23.034;2023-04-26T19:54:52;94415.69;;;9.27;100.00
7990;BME280;4040;42.848;23.034;2023-04-26T20:00:43;94504.16;;;9.78;100.00
7990;BME280;4040;42.848;23.034;2023-04-26T20:06:32;94498.13;;;9.70;100.00
7990;BME280;4040;42.848;23.034;2023-04-26T20:12:21;94507.47;;;9.59;100.00
7990;BME280;4040;42.848;23.034;2023-04-26T20:18:11;94355.84;;;8.56;100.00
7990;BME280;4040;42.848;23.034;2023-04-26T20:28:22;94387.53;;;8.68;97.87
7990;BME280;4040;42.848;23.034;2023-04-26T20:34:13;94514.94;;;9.41;93.79
7990;BME280;4040;42.848;23.034;2023-04-26T20:40:02;94524.19;;;9.40;94.22
7990;BME280;4040;42.848;23.034;2023-04-26T20:45:51;94366.97;;;8.07;93.34
7990;BME280;4040;42.848;23.034;2023-04-26T20:51:42;94551.59;;;9.24;93.22
7990;BME280;4040;42.848;23.034;2023-04-26T20:57:30;94355.56;;;7.96;90.15
7990;BME280;4040;42.848;23.034;2023-04-26T21:03:20;94295.34;;;7.60;89.39
7990;BME280;4040;42.848;23.034;2023-04-26T21:09:10;94534.97;;;8.96;90.36
7990;BME280;4040;42.848;23.034;2023-04-26T21:14:59;94266.69;;;6.96;91.23
7990;BME280;4040;42.848;23.034;2023-04-26T21:20:48;94397.06;;;7.81;91.73
7990;BME280;4040;42.848;23.034;2023-04-26T21:31:04;94419.31;;;7.71;90.68
7990;BME280;4040;42.848;23.034;2023-04-26T21:36:54;94387.75;;;7.38;90.62
7990;BME280;4040;42.848;23.034;2023-04-26T21:42:43;94583.69;;;8.40;92.01
7990;BME280;4040;42.848;23.034;2023-04-26T21:48:34;94433.22;;;7.45;89.84
7990;BME280;4040;42.848;23.034;2023-04-26T21:54:24;94584.53;;;8.16;92.70
7990;BME280;4040;42.848;23.034;2023-04-26T22:08:29;94557.97;;;7.53;95.53
7990;BME280;4040;42.848;23.034;2023-04-26T22:14:18;94592.38;;;7.79;93.64
7990;BME280;4040;42.848;23.034;2023-04-26T22:20:08;94494.59;;;7.01;90.59
7990;BME280;4040;42.848;23.034;2023-04-26T22:25:58;94482.41;;;6.83;90.25
7990;BME280;4040;42.848;23.034;2023-04-26T22:31:47;94488.53;;;6.76;88.53
7990;BME280;4040;42.848;23.034;2023-04-26T22:37:36;94524.78;;;7.09;86.56
7990;BME280;4040;42.848;23.034;2023-04-26T22:43:26;94618.47;;;7.50;88.16
7990;BME280;4040;42.848;23.034;2023-04-26T22:49:15;94492.75;;;6.63;85.38
7990;BME280;4040;42.848;23.034;2023-04-26T22:55:05;94517.56;;;6.88;85.65
7990;BME280;4040;42.848;23.034;2023-04-26T23:00:55;94577.94;;;7.24;84.33
7990;BME280;4040;42.848;23.034;2023-04-26T23:03:22;94471.72;;;6.41;86.74
7990;BME280;4040;42.848;23.034;2023-04-26T23:09:10;94491.97;;;6.42;87.70
7990;BME280;4040;42.848;23.034;2023-04-26T23:14:59;94470.94;;;6.12;89.46
7990;BME280;4040;42.848;23.034;2023-04-26T23:20:50;94490.03;;;6.00;93.07
7990;BME280;4040;42.848;23.034;2023-04-26T23:26:39;94623.88;;;6.84;94.21
7990;BME280;4040;42.848;23.034;2023-04-26T23:32:28;94620.41;;;6.77;94.08
7990;BME280;4040;42.848;23.034;2023-04-26T23:38:18;94512.13;;;5.83;98.37
7990;BME280;4040;42.848;23.034;2023-04-26T23:44:08;94463.88;;;5.38;100.00
7990;BME280;4040;42.848;23.034;2023-04-26T23:49:57;94499.03;;;5.50;100.00
7990;BME280;4040;42.848;23.034;2023-04-26T23:55:47;94636.00;;;6.33;100.00
